createdAt,value
2022-12-24T00:00:38.734Z,1003.93
2022-12-24T00:04:36.051Z,1004.04
2022-12-24T00:08:36.113Z,1003.97
2022-12-24T00:12:36.016Z,1003.94
2022-12-24T00:16:35.933Z,1003.99
2022-12-24T00:20:35.687Z,1004.05
2022-12-24T00:24:35.636Z,1003.99
2022-12-24T00:28:35.226Z,1004.16
2022-12-24T00:32:35.656Z,1004.13
2022-12-24T00:36:35.572Z,1004.13
2022-12-24T00:40:35.146Z,1004.19
2022-12-24T00:44:35.935Z,1004.25
2022-12-24T00:48:35.687Z,1004.32
2022-12-24T00:52:35.622Z,1004.38
2022-12-24T00:56:35.276Z,1004.5
2022-12-24T01:00:40.772Z,1004.56
2022-12-24T01:04:35.556Z,1004.47
2022-12-24T01:08:35.196Z,1004.64
2022-12-24T01:12:35.925Z,1004.58
2022-12-24T01:16:36.040Z,1004.66
2022-12-24T01:20:35.446Z,1004.67
2022-12-24T01:24:35.133Z,1004.86
2022-12-24T01:28:35.936Z,1004.89
2022-12-24T01:32:35.853Z,1004.89
2022-12-24T01:36:35.428Z,1004.8
2022-12-24T01:40:35.392Z,1004.85
2022-12-24T01:44:41.081Z,1005.05
2022-12-24T01:48:35.897Z,1005.04
2022-12-24T01:52:35.748Z,1005.14
2022-12-24T01:56:35.620Z,1005.05
2022-12-24T02:00:38.537Z,1005.13
2022-12-24T02:04:35.234Z,1005.25
2022-12-24T02:08:35.108Z,1005.32
2022-12-24T02:12:35.818Z,1005.47
2022-12-24T02:16:36.018Z,1005.33
2022-12-24T02:20:35.345Z,1005.41
2022-12-24T02:24:35.244Z,1005.39
2022-12-24T02:28:36.000Z,1005.51
2022-12-24T02:32:35.713Z,1005.49
2022-12-24T02:36:35.373Z,1005.41
2022-12-24T02:40:39.472Z,1005.53
2022-12-24T02:44:35.140Z,1005.52
2022-12-24T02:48:35.899Z,1005.4
2022-12-24T02:52:35.603Z,1005.62
2022-12-24T02:56:35.286Z,1005.66
2022-12-24T03:00:38.465Z,1005.75
2022-12-24T03:04:35.114Z,1005.7
2022-12-24T03:08:35.822Z,1005.7
2022-12-24T03:12:35.567Z,1005.68
2022-12-24T03:16:35.493Z,1005.83
2022-12-24T03:20:35.771Z,1005.9
2022-12-24T03:24:35.318Z,1005.96
2022-12-24T03:28:35.366Z,1005.95
2022-12-24T03:32:35.352Z,1006
2022-12-24T03:36:35.598Z,1006.08
2022-12-24T03:40:35.725Z,1006.03
2022-12-24T03:44:35.307Z,1005.94
2022-12-24T03:48:43.754Z,1005.89
2022-12-24T03:52:35.809Z,1006.12
2022-12-24T03:56:35.635Z,1005.97
2022-12-24T04:00:38.678Z,1006.08
2022-12-24T04:04:35.664Z,1006.06
2022-12-24T04:08:35.402Z,1006.14
2022-12-24T04:12:35.893Z,1006.11
2022-12-24T04:16:35.919Z,1006.11
2022-12-24T04:20:35.167Z,1006.26
2022-12-24T04:24:36.038Z,1006.29
2022-12-24T04:28:35.803Z,1006.21
2022-12-24T04:32:35.780Z,1006.35
2022-12-24T04:36:35.117Z,1006.27
2022-12-24T04:40:35.939Z,1006.24
2022-12-24T04:44:35.669Z,1006.4
2022-12-24T04:48:35.397Z,1006.32
2022-12-24T04:52:35.989Z,1006.51
2022-12-24T04:56:35.508Z,1006.56
2022-12-24T05:00:38.559Z,1006.51
2022-12-24T05:04:35.431Z,1006.57
2022-12-24T05:08:36.046Z,1006.43
2022-12-24T05:12:35.806Z,1006.53
2022-12-24T05:16:35.676Z,1006.63
2022-12-24T05:20:35.910Z,1006.6
2022-12-24T05:24:35.614Z,1006.66
2022-12-24T05:28:35.664Z,1006.62
2022-12-24T05:32:35.341Z,1006.65
2022-12-24T05:36:35.933Z,1006.5
2022-12-24T05:40:35.506Z,1006.53
2022-12-24T05:44:35.229Z,1006.57
2022-12-24T05:48:35.693Z,1006.59
2022-12-24T05:52:35.606Z,1006.66
2022-12-24T05:56:35.392Z,1006.73
2022-12-24T06:00:38.123Z,1006.75
2022-12-24T06:04:40.438Z,1006.85
2022-12-24T06:08:36.055Z,1006.98
2022-12-24T06:12:35.736Z,1006.96
2022-12-24T06:16:35.811Z,1006.96
2022-12-24T06:20:36.242Z,1007.14
2022-12-24T06:24:35.944Z,1007.15
2022-12-24T06:28:35.411Z,1007.34
2022-12-24T06:32:35.273Z,1007.36
2022-12-24T06:36:40.463Z,1007.29
2022-12-24T06:40:35.982Z,1007.29
2022-12-24T06:44:35.569Z,1007.36
2022-12-24T06:48:35.357Z,1007.23
2022-12-24T06:52:35.204Z,1007.28
2022-12-24T06:56:35.836Z,1007.47
2022-12-24T07:00:36.255Z,1007.35
2022-12-24T07:04:42.988Z,1007.47
2022-12-24T07:08:35.854Z,1007.4
2022-12-24T07:12:35.448Z,1007.53
2022-12-24T07:16:36.138Z,1007.48
2022-12-24T07:20:35.995Z,1007.56
2022-12-24T07:24:35.611Z,1007.59
2022-12-24T07:28:39.652Z,1007.75
2022-12-24T07:32:35.226Z,1007.71
2022-12-24T07:36:35.837Z,1007.93
2022-12-24T07:40:35.444Z,1008.01
2022-12-24T07:44:35.926Z,1008.08
2022-12-24T07:48:35.484Z,1008.01
2022-12-24T07:52:36.130Z,1008.1
2022-12-24T07:56:41.317Z,1008.24
2022-12-24T08:00:35.318Z,1008.3
2022-12-24T08:04:35.772Z,1008.43
2022-12-24T08:08:35.357Z,1008.42
2022-12-24T08:12:36.064Z,1008.56
2022-12-24T08:16:36.190Z,1008.56
2022-12-24T08:20:35.766Z,1008.6
2022-12-24T08:24:35.162Z,1008.7
2022-12-24T08:28:35.670Z,1008.79
2022-12-24T08:32:35.274Z,1008.81
2022-12-24T08:36:36.218Z,1008.93
2022-12-24T08:40:36.068Z,1008.94
2022-12-24T08:44:35.668Z,1008.97
2022-12-24T08:48:34.975Z,1009
2022-12-24T08:52:35.603Z,1009.37
2022-12-24T08:56:35.036Z,1009.13
2022-12-24T09:00:38.828Z,1009.18
2022-12-24T09:04:35.737Z,1009.24
2022-12-24T09:08:35.569Z,1009.39
2022-12-24T09:12:35.305Z,1009.34
2022-12-24T09:16:35.407Z,1009.63
2022-12-24T09:20:35.839Z,1009.71
2022-12-24T09:24:35.343Z,1009.55
2022-12-24T09:28:35.260Z,1009.7
2022-12-24T09:32:36.301Z,1009.77
2022-12-24T09:36:35.566Z,1009.78
2022-12-24T09:40:35.193Z,1009.78
2022-12-24T09:44:35.742Z,1009.68
2022-12-24T09:48:35.397Z,1009.81
2022-12-24T09:52:35.356Z,1009.89
2022-12-24T09:56:35.824Z,1009.85
2022-12-24T10:00:42.090Z,1009.92
2022-12-24T10:04:35.931Z,1009.93
2022-12-24T10:08:35.671Z,1009.97
2022-12-24T10:12:35.451Z,1010.06
2022-12-24T10:16:36.156Z,1010.16
2022-12-24T10:20:35.682Z,1010.1
2022-12-24T10:24:35.689Z,1010.08
2022-12-24T10:28:35.322Z,1010.14
2022-12-24T10:32:36.041Z,1010.16
2022-12-24T10:36:43.739Z,1010.23
2022-12-24T10:40:35.525Z,1010.15
2022-12-24T10:44:35.975Z,1010.14
2022-12-24T10:48:35.893Z,1010.22
2022-12-24T10:52:35.622Z,1010.2
2022-12-24T10:56:35.252Z,1010.37
2022-12-24T11:00:47.352Z,1010.36
2022-12-24T11:04:35.599Z,1010.34
2022-12-24T11:08:35.552Z,1010.38
2022-12-24T11:12:42.982Z,1010.38
2022-12-24T11:16:36.290Z,1010.34
2022-12-24T11:20:35.707Z,1010.35
2022-12-24T11:24:35.352Z,1010.42
2022-12-24T11:28:35.914Z,1010.39
2022-12-24T11:32:35.372Z,1010.41
2022-12-24T11:36:35.931Z,1010.61
2022-12-24T11:40:35.529Z,1010.47
2022-12-24T11:44:36.053Z,1010.46
2022-12-24T11:48:35.462Z,1010.63
2022-12-24T11:52:36.130Z,1010.49
2022-12-24T11:56:35.745Z,1010.55
2022-12-24T12:00:40.839Z,1010.64
2022-12-24T12:04:36.286Z,1010.64
2022-12-24T12:08:35.256Z,1010.69
2022-12-24T12:12:36.087Z,1010.87
2022-12-24T12:16:35.908Z,1010.91
2022-12-24T12:20:35.570Z,1010.83
2022-12-24T12:24:43.526Z,1010.88
2022-12-24T12:28:35.472Z,1010.83
2022-12-24T12:32:36.521Z,1010.85
2022-12-24T12:36:35.688Z,1010.9
2022-12-24T12:40:35.274Z,1011.01
2022-12-24T12:44:35.732Z,1010.95
2022-12-24T12:48:35.480Z,1011.06
2022-12-24T12:52:35.959Z,1011.07
2022-12-24T12:56:35.606Z,1011.13
2022-12-24T13:00:38.941Z,1011.09
2022-12-24T13:04:35.847Z,1011.12
2022-12-24T13:08:35.559Z,1011.06
2022-12-24T13:12:36.111Z,1010.98
2022-12-24T13:16:36.027Z,1011.17
2022-12-24T13:20:36.042Z,1011.24
2022-12-24T13:24:35.838Z,1011.44
2022-12-24T13:28:35.240Z,1011.43
2022-12-24T13:32:35.899Z,1011.48
2022-12-24T13:36:35.404Z,1011.36
2022-12-24T13:40:35.183Z,1011.47
2022-12-24T13:44:36.247Z,1011.52
2022-12-24T13:48:35.334Z,1011.44
2022-12-24T13:52:42.170Z,1011.53
2022-12-24T13:56:35.369Z,1011.56
2022-12-24T14:00:39.613Z,1011.53
2022-12-24T14:04:35.244Z,1011.53
2022-12-24T14:08:35.905Z,1011.53
2022-12-24T14:12:39.395Z,1011.56
2022-12-24T14:16:35.643Z,1011.6
2022-12-24T14:20:36.004Z,1011.62
2022-12-24T14:24:35.645Z,1011.69
2022-12-24T14:28:35.101Z,1011.7
2022-12-24T14:32:36.118Z,1011.73
2022-12-24T14:36:35.383Z,1011.75
2022-12-24T14:40:35.972Z,1011.53
2022-12-24T14:44:35.881Z,1011.68
2022-12-24T14:48:35.225Z,1011.75
2022-12-24T14:53:30.688Z,1011.81
2022-12-24T14:56:35.286Z,1011.87
2022-12-24T15:00:39.754Z,1011.95
2022-12-24T15:04:36.017Z,1011.94
2022-12-24T15:08:35.426Z,1011.99
2022-12-24T15:12:36.137Z,1011.94
2022-12-24T15:16:35.931Z,1011.99
2022-12-24T15:20:35.768Z,1012.09
2022-12-24T15:24:35.598Z,1012.05
2022-12-24T15:28:35.217Z,1012.13
2022-12-24T15:32:35.729Z,1012.26
2022-12-24T15:36:35.507Z,1012.23
2022-12-24T15:40:35.467Z,1012.45
2022-12-24T15:44:35.302Z,1012.36
2022-12-24T15:48:35.808Z,1012.42
2022-12-24T15:52:35.472Z,1012.47
2022-12-24T15:56:35.153Z,1012.5
2022-12-24T16:00:35.850Z,1012.44
2022-12-24T16:04:36.242Z,1012.4
2022-12-24T16:08:35.602Z,1012.48
2022-12-24T16:12:37.793Z,1012.46
2022-12-24T16:16:36.158Z,1012.42
2022-12-24T16:20:35.503Z,1012.42
2022-12-24T16:24:35.561Z,1012.5
2022-12-24T16:28:45.732Z,1012.4
2022-12-24T16:32:35.505Z,1012.45
2022-12-24T16:36:35.823Z,1012.36
2022-12-24T16:40:43.271Z,1012.34
2022-12-24T16:44:35.879Z,1012.47
2022-12-24T16:48:35.577Z,1012.34
2022-12-24T16:52:35.799Z,1012.36
2022-12-24T16:56:36.029Z,1012.38
2022-12-24T17:00:38.843Z,1012.3
2022-12-24T17:04:35.869Z,1012.42
2022-12-24T17:08:35.499Z,1012.47
2022-12-24T17:12:35.122Z,1012.39
2022-12-24T17:16:36.168Z,1012.34
2022-12-24T17:20:41.509Z,1012.22
2022-12-24T17:24:35.671Z,1012.26
2022-12-24T17:28:35.230Z,1012.15
2022-12-24T17:32:36.013Z,1012.28
2022-12-24T17:36:35.506Z,1012.24
2022-12-24T17:40:35.326Z,1012.31
2022-12-24T17:44:35.859Z,1012.14
2022-12-24T17:48:35.727Z,1012.37
2022-12-24T17:52:36.103Z,1012.27
2022-12-24T17:56:35.735Z,1012.32
2022-12-24T18:00:44.634Z,1012.28
2022-12-24T18:04:35.980Z,1012.19
2022-12-24T18:08:35.310Z,1012.24
2022-12-24T18:12:35.846Z,1012.23
2022-12-24T18:16:35.723Z,1012.27
2022-12-24T18:20:41.123Z,1012.36
2022-12-24T18:24:35.759Z,1012.3
2022-12-24T18:28:35.384Z,1012.28
2022-12-24T18:32:35.869Z,1012.32
2022-12-24T18:36:35.467Z,1012.44
2022-12-24T18:40:35.673Z,1012.35
2022-12-24T18:44:37.073Z,1012.33
2022-12-24T18:48:35.730Z,1012.25
2022-12-24T18:52:40.445Z,1012.33
2022-12-24T18:56:35.284Z,1012.4
2022-12-24T19:00:39.048Z,1012.34
2022-12-24T19:04:36.012Z,1012.42
2022-12-24T19:09:20.697Z,1012.43
2022-12-24T19:12:35.705Z,1012.43
2022-12-24T19:16:36.367Z,1012.45
2022-12-24T19:20:35.863Z,1012.54
2022-12-24T19:24:35.162Z,1012.5
2022-12-24T19:28:37.542Z,1012.48
2022-12-24T19:32:35.508Z,1012.53
2022-12-24T19:36:35.961Z,1012.44
2022-12-24T19:40:35.658Z,1012.53
2022-12-24T19:44:35.187Z,1012.53
2022-12-24T19:48:35.811Z,1012.64
2022-12-24T19:52:35.448Z,1012.48
2022-12-24T19:56:35.305Z,1012.35
2022-12-24T20:00:40.469Z,1012.25
2022-12-24T20:04:35.166Z,1012.15
2022-12-24T20:08:36.120Z,1012.35
2022-12-24T20:12:35.636Z,1012.34
2022-12-24T20:16:35.805Z,1012.34
2022-12-24T20:20:35.297Z,1012.26
2022-12-24T20:24:35.971Z,1012.09
2022-12-24T20:28:35.783Z,1012.17
2022-12-24T20:32:35.854Z,1012.27
2022-12-24T20:36:35.800Z,1012.02
2022-12-24T20:40:35.138Z,1012.08
2022-12-24T20:44:35.769Z,1011.99
2022-12-24T20:48:35.326Z,1012.02
2022-12-24T20:52:35.391Z,1011.98
2022-12-24T20:56:35.845Z,1011.95
2022-12-24T21:00:38.612Z,1011.96
2022-12-24T21:04:35.585Z,1011.9
2022-12-24T21:08:35.858Z,1012.01
2022-12-24T21:12:35.588Z,1011.96
2022-12-24T21:16:35.611Z,1011.87
2022-12-24T21:20:35.990Z,1012
2022-12-24T21:24:35.354Z,1012
2022-12-24T21:28:35.914Z,1012.17
2022-12-24T21:32:35.682Z,1012.12
2022-12-24T21:36:35.389Z,1012.07
2022-12-24T21:40:36.022Z,1011.95
2022-12-24T21:44:35.624Z,1011.94
2022-12-24T21:48:35.932Z,1011.94
2022-12-24T21:52:35.498Z,1011.94
2022-12-24T21:56:36.027Z,1011.91
2022-12-24T22:00:38.538Z,1011.92
2022-12-24T22:04:35.977Z,1012
2022-12-24T22:08:35.550Z,1011.81
2022-12-24T22:12:36.255Z,1011.87
2022-12-24T22:16:36.022Z,1011.85
2022-12-24T22:20:35.372Z,1011.83
2022-12-24T22:24:35.995Z,1011.95
2022-12-24T22:28:35.833Z,1011.89
2022-12-24T22:32:35.458Z,1011.77
2022-12-24T22:36:35.305Z,1011.96
2022-12-24T22:40:35.403Z,1012.02
2022-12-24T22:44:35.296Z,1012.08
2022-12-24T22:48:35.113Z,1012.15
2022-12-24T22:52:35.917Z,1012.06
2022-12-24T22:56:40.996Z,1012.16
2022-12-24T23:00:35.848Z,1012.16
2022-12-24T23:04:35.901Z,1012.28
2022-12-24T23:08:35.553Z,1012.3
2022-12-24T23:12:35.099Z,1012.2
2022-12-24T23:16:36.106Z,1012.25
2022-12-24T23:20:35.584Z,1012.26
2022-12-24T23:24:35.239Z,1012.29
2022-12-24T23:28:36.030Z,1012.28
2022-12-24T23:32:35.606Z,1012.15
2022-12-24T23:36:35.321Z,1012.04
2022-12-24T23:40:36.066Z,1012.08
2022-12-24T23:44:43.605Z,1011.89
2022-12-24T23:48:35.300Z,1011.97
2022-12-24T23:52:35.918Z,1011.9
2022-12-24T23:56:35.448Z,1011.89
